createdAt,value
2022-10-18T00:00:49.046Z,11.50
2022-10-18T00:04:50.423Z,11.88
2022-10-18T00:08:51.970Z,11.70
2022-10-18T00:12:53.374Z,11.80
2022-10-18T00:16:54.780Z,11.82
2022-10-18T00:21:01.453Z,11.43
2022-10-18T00:25:02.905Z,12.00
2022-10-18T00:29:05.739Z,11.40
2022-10-18T00:33:07.123Z,12.07
2022-10-18T00:37:08.525Z,11.43
2022-10-18T00:41:12.824Z,12.27
2022-10-18T00:45:25.046Z,12.25
2022-10-18T00:49:31.356Z,11.48
2022-10-18T00:53:33.214Z,12.60
2022-10-18T00:57:34.711Z,11.43
2022-10-18T01:01:36.262Z,11.98
2022-10-18T01:05:43.640Z,11.30
2022-10-18T01:09:58.819Z,12.75
2022-10-18T01:14:18.438Z,12.02
2022-10-18T01:18:45.892Z,10.63
2022-10-18T01:22:59.931Z,9.50
2022-10-18T01:27:16.758Z,9.73
2022-10-18T01:31:32.918Z,9.55
2022-10-18T01:35:41.188Z,9.48
2022-10-18T01:39:46.027Z,9.60
2022-10-18T01:43:50.789Z,7.15
2022-10-18T01:47:54.155Z,8.07
2022-10-18T01:51:55.589Z,7.40
2022-10-18T01:56:13.016Z,7.32
2022-10-18T02:00:25.824Z,7.50
2022-10-18T02:04:42.486Z,7.60
2022-10-18T02:08:56.486Z,7.20
2022-10-18T02:12:59.134Z,7.63
2022-10-18T02:17:03.341Z,6.72
2022-10-18T02:21:08.206Z,6.68
2022-10-18T02:25:16.375Z,7.95
2022-10-18T02:29:17.940Z,7.38
2022-10-18T02:33:32.459Z,6.80
2022-10-18T02:37:37.636Z,6.90
2022-10-18T02:41:39.027Z,6.00
2022-10-18T02:45:40.528Z,6.43
2022-10-18T02:49:41.947Z,6.28
2022-10-18T02:53:43.374Z,6.63
2022-10-18T02:57:44.709Z,6.85
2022-10-18T03:01:46.152Z,7.32
2022-10-18T03:05:51.368Z,6.78
2022-10-18T03:09:52.780Z,7.07
2022-10-18T03:13:54.155Z,6.85
2022-10-18T03:17:55.550Z,6.53
2022-10-18T03:21:56.955Z,8.30
2022-10-18T03:25:58.346Z,7.75
2022-10-18T03:30:00.922Z,8.43
2022-10-18T03:34:02.454Z,8.90
2022-10-18T03:38:03.937Z,8.07
2022-10-18T03:42:05.322Z,8.27
2022-10-18T03:46:06.896Z,8.40
2022-10-18T03:50:08.688Z,7.90
2022-10-18T03:54:10.056Z,7.82
2022-10-18T03:58:11.509Z,8.10
2022-10-18T04:02:12.859Z,8.48
2022-10-18T04:06:14.402Z,8.88
2022-10-18T04:10:16.481Z,9.02
2022-10-18T04:14:18.568Z,8.00
2022-10-18T04:18:20.044Z,8.82
2022-10-18T04:22:21.501Z,9.57
2022-10-18T04:26:22.993Z,8.50
2022-10-18T04:30:24.403Z,8.07
2022-10-18T04:34:25.832Z,9.13
2022-10-18T04:38:27.542Z,9.73
2022-10-18T04:42:28.918Z,8.60
2022-10-18T04:46:30.332Z,8.80
2022-10-18T04:50:31.803Z,8.45
2022-10-18T04:54:33.218Z,8.05
2022-10-18T04:58:34.644Z,9.30
2022-10-18T05:02:36.081Z,8.75
2022-10-18T05:06:37.498Z,8.32
2022-10-18T05:10:38.902Z,8.57
2022-10-18T05:14:40.327Z,8.55
2022-10-18T05:18:43.120Z,8.40
2022-10-18T05:22:44.595Z,8.70
2022-10-18T05:26:46.223Z,9.43
2022-10-18T05:30:47.674Z,8.32
2022-10-18T05:34:49.070Z,8.30
2022-10-18T05:38:50.474Z,8.93
2022-10-18T05:42:52.262Z,9.15
2022-10-18T05:46:54.025Z,9.68
2022-10-18T05:50:59.183Z,9.70
2022-10-18T05:55:01.362Z,8.90
2022-10-18T05:59:05.086Z,10.23
2022-10-18T06:03:06.469Z,9.73
2022-10-18T06:07:12.093Z,9.95
2022-10-18T06:11:16.931Z,9.90
2022-10-18T06:15:18.705Z,10.45
2022-10-18T06:19:20.256Z,10.93
2022-10-18T06:23:21.636Z,10.07
2022-10-18T06:27:22.980Z,10.95
2022-10-18T06:31:24.343Z,10.48
2022-10-18T06:35:25.729Z,10.82
2022-10-18T06:39:27.164Z,9.88
2022-10-18T06:43:28.631Z,10.65
2022-10-18T06:47:29.998Z,10.05
2022-10-18T06:51:31.460Z,10.02
2022-10-18T06:55:32.922Z,9.88
2022-10-18T06:59:34.294Z,8.90
2022-10-18T07:03:36.592Z,9.45
2022-10-18T07:07:38.110Z,9.23
2022-10-18T07:11:39.517Z,8.15
2022-10-18T07:15:40.873Z,8.23
2022-10-18T07:19:42.282Z,8.15
2022-10-18T07:23:46.179Z,8.50
2022-10-18T07:27:47.595Z,8.95
2022-10-18T07:31:49.004Z,8.88
2022-10-18T07:35:50.425Z,8.20
2022-10-18T07:39:51.801Z,7.47
2022-10-18T07:43:53.351Z,8.32
2022-10-18T07:47:58.051Z,7.82
2022-10-18T07:51:59.419Z,6.97
2022-10-18T07:56:05.949Z,7.60
2022-10-18T08:00:11.499Z,7.22
2022-10-18T08:04:16.334Z,7.95
2022-10-18T08:08:18.089Z,7.60
2022-10-18T08:12:19.482Z,6.72
2022-10-18T08:16:26.938Z,7.03
2022-10-18T08:20:31.123Z,7.45
2022-10-18T08:24:32.657Z,7.57
2022-10-18T08:28:36.671Z,7.72
2022-10-18T08:32:38.355Z,8.05
2022-10-18T08:36:39.774Z,6.35
2022-10-18T08:40:44.434Z,7.30
2022-10-18T08:44:48.591Z,6.20
2022-10-18T08:48:55.574Z,6.18
2022-10-18T08:53:05.214Z,5.03
2022-10-18T08:57:14.830Z,5.10
2022-10-18T09:01:28.579Z,4.85
2022-10-18T09:05:36.018Z,5.28
2022-10-18T09:10:07.623Z,6.35
2022-10-18T09:14:54.203Z,4.63
2022-10-18T09:18:59.815Z,5.45
2022-10-18T09:23:11.744Z,5.47
2022-10-18T09:27:18.896Z,14.35
2022-10-18T09:31:45.081Z,9.32
2022-10-18T09:35:54.637Z,6.75
2022-10-18T09:44:30.624Z,6.32
2022-10-18T09:48:40.615Z,7.18
2022-10-18T09:52:49.033Z,6.93
2022-10-18T10:00:57.882Z,6.22
2022-10-18T10:04:59.351Z,6.95
2022-10-18T10:09:14.923Z,7.65
2022-10-18T10:13:26.089Z,7.05
2022-10-18T10:17:31.260Z,7.38
2022-10-18T10:21:32.789Z,7.57
2022-10-18T10:25:38.733Z,7.50
2022-10-18T10:29:45.936Z,8.18
2022-10-18T10:33:48.259Z,8.02
2022-10-18T10:37:54.167Z,9.38
2022-10-18T10:41:58.951Z,9.57
2022-10-18T10:46:10.450Z,9.25
2022-10-18T10:50:13.182Z,8.30
2022-10-18T10:54:17.638Z,8.68
2022-10-18T10:58:19.109Z,9.85
2022-10-18T11:02:29.907Z,9.95
2022-10-18T11:06:53.802Z,9.90
2022-10-18T11:11:26.782Z,9.85
2022-10-18T11:15:41.010Z,9.52
2022-10-18T11:20:05.376Z,10.93
2022-10-18T11:24:16.414Z,8.70
2022-10-18T11:28:53.545Z,9.43
2022-10-18T11:33:14.336Z,8.35
2022-10-18T11:37:39.755Z,8.75
2022-10-18T11:41:54.834Z,7.88
2022-10-18T11:46:13.344Z,8.23
2022-10-18T11:50:39.481Z,7.95
2022-10-18T11:55:18.682Z,8.25
2022-10-18T11:59:42.128Z,7.10
2022-10-18T12:03:59.662Z,7.20
2022-10-18T12:08:05.341Z,8.68
2022-10-18T12:12:19.834Z,7.45
2022-10-18T12:16:45.629Z,14.43
2022-10-18T12:20:49.813Z,6.57
2022-10-18T12:24:51.794Z,6.05
2022-10-18T12:29:05.471Z,7.18
2022-10-18T12:33:27.729Z,6.18
2022-10-18T12:37:58.437Z,6.30
2022-10-18T12:41:59.935Z,6.93
2022-10-18T12:46:03.221Z,5.93
2022-10-18T12:50:08.033Z,5.55
2022-10-18T12:54:12.229Z,6.90
2022-10-18T12:58:13.917Z,6.72
2022-10-18T13:02:25.597Z,6.43
2022-10-18T13:07:05.066Z,6.95
2022-10-18T13:11:12.457Z,6.80
2022-10-18T13:15:35.380Z,7.75
2022-10-18T13:20:20.443Z,6.32
2022-10-18T13:24:26.554Z,7.40
2022-10-18T13:28:55.825Z,7.30
2022-10-18T13:33:15.013Z,7.95
2022-10-18T13:37:16.376Z,6.80
2022-10-18T13:41:20.967Z,7.20
2022-10-18T13:45:31.889Z,8.15
2022-10-18T13:49:39.268Z,7.95
2022-10-18T13:54:09.067Z,7.82
2022-10-18T13:58:30.746Z,7.72
2022-10-18T14:03:00.467Z,7.60
2022-10-18T14:07:04.902Z,8.35
2022-10-18T14:11:22.548Z,8.07
2022-10-18T14:15:34.646Z,8.40
2022-10-18T14:19:49.221Z,7.25
2022-10-18T14:23:51.509Z,6.88
2022-10-18T14:28:13.449Z,6.22
2022-10-18T14:32:25.736Z,6.22
2022-10-18T14:36:30.822Z,6.88
2022-10-18T14:40:39.025Z,6.70
2022-10-18T14:44:40.513Z,6.60
2022-10-18T14:48:42.456Z,6.40
2022-10-18T14:52:43.999Z,6.50
2022-10-18T14:56:46.095Z,5.18
2022-10-18T15:00:48.595Z,5.85
2022-10-18T15:05:23.516Z,6.13
2022-10-18T15:09:25.424Z,6.88
2022-10-18T15:13:27.476Z,6.45
2022-10-18T15:17:31.579Z,7.57
2022-10-18T15:21:35.395Z,7.80
2022-10-18T15:25:37.163Z,8.48
2022-10-18T15:29:38.728Z,8.07
2022-10-18T15:33:40.190Z,8.32
2022-10-18T15:37:47.063Z,9.15
2022-10-18T15:42:04.444Z,11.07
2022-10-18T15:46:07.189Z,8.23
2022-10-18T15:50:36.294Z,13.02
2022-10-18T15:54:38.767Z,9.75
2022-10-18T15:58:45.269Z,10.23
2022-10-18T16:02:46.830Z,10.45
2022-10-18T16:06:48.513Z,10.40
2022-10-18T16:10:50.798Z,11.48
2022-10-18T16:14:52.186Z,11.82
2022-10-18T16:18:53.705Z,10.93
2022-10-18T16:22:55.143Z,10.43
2022-10-18T16:26:56.839Z,11.85
2022-10-18T16:31:01.441Z,11.13
2022-10-18T16:35:02.941Z,11.65
2022-10-18T16:39:07.674Z,11.02
2022-10-18T16:43:09.090Z,12.13
2022-10-18T16:47:11.290Z,11.75
2022-10-18T16:51:13.372Z,12.82
2022-10-18T16:55:21.079Z,12.52
2022-10-18T16:59:30.711Z,11.65
2022-10-18T17:03:32.157Z,11.23
2022-10-18T17:07:33.595Z,12.32
2022-10-18T17:11:35.064Z,14.63
2022-10-18T17:15:36.512Z,12.48
2022-10-18T17:19:37.967Z,14.88
2022-10-18T17:23:39.484Z,12.95
2022-10-18T17:27:40.993Z,13.80
2022-10-18T17:31:42.446Z,14.38
2022-10-18T17:35:44.538Z,13.93
2022-10-18T17:39:46.107Z,12.50
2022-10-18T17:43:50.904Z,14.65
2022-10-18T17:47:52.447Z,14.65
2022-10-18T17:51:53.845Z,14.23
2022-10-18T17:56:02.399Z,13.80
2022-10-18T18:00:07.873Z,14.68
2022-10-18T18:04:09.550Z,13.45
2022-10-18T18:08:10.920Z,14.25
2022-10-18T18:12:12.743Z,15.02
2022-10-18T18:16:20.801Z,14.38
2022-10-18T18:20:22.267Z,14.98
2022-10-18T18:24:24.746Z,14.88
2022-10-18T18:28:26.253Z,15.07
2022-10-18T18:32:28.373Z,14.30
2022-10-18T18:36:29.874Z,13.55
2022-10-18T18:40:31.290Z,14.90
2022-10-18T18:44:33.951Z,14.43
2022-10-18T18:48:36.579Z,14.90
2022-10-18T18:52:37.986Z,14.50
2022-10-18T18:56:39.488Z,14.57
2022-10-18T19:00:44.353Z,16.85
2022-10-18T19:04:46.053Z,14.80
2022-10-18T19:08:48.677Z,15.15
2022-10-18T19:12:50.066Z,13.90
2022-10-18T19:16:57.463Z,15.15
2022-10-18T19:20:58.850Z,14.77
2022-10-18T19:25:00.324Z,14.63
2022-10-18T19:29:13.665Z,13.27
2022-10-18T19:33:15.524Z,12.85
2022-10-18T19:37:16.927Z,11.00
2022-10-18T19:41:18.419Z,7.85
2022-10-18T19:45:19.867Z,8.73
2022-10-18T19:49:21.406Z,8.10
2022-10-18T19:53:23.066Z,8.55
2022-10-18T19:57:24.482Z,8.30
2022-10-18T20:01:27.973Z,8.60
2022-10-18T20:05:29.436Z,8.00
2022-10-18T20:09:30.996Z,8.50
2022-10-18T20:13:33.311Z,8.32
2022-10-18T20:17:34.933Z,11.88
2022-10-18T20:21:36.716Z,9.88
2022-10-18T20:25:38.250Z,9.73
2022-10-18T20:29:39.649Z,9.18
2022-10-18T20:33:41.377Z,8.77
2022-10-18T20:37:42.748Z,8.57
2022-10-18T20:41:44.133Z,8.88
2022-10-18T20:45:45.520Z,8.50
2022-10-18T20:49:46.940Z,9.02
2022-10-18T20:53:48.818Z,8.45
2022-10-18T20:57:50.206Z,8.45
2022-10-18T21:01:51.740Z,8.45
2022-10-18T21:05:53.130Z,8.63
2022-10-18T21:09:54.514Z,8.95
2022-10-18T21:13:59.478Z,9.52
2022-10-18T21:18:00.841Z,8.93
2022-10-18T21:22:02.246Z,10.23
2022-10-18T21:26:03.936Z,10.00
2022-10-18T21:30:05.615Z,10.50
2022-10-18T21:34:14.494Z,10.73
2022-10-18T21:38:15.863Z,10.23
2022-10-18T21:42:17.230Z,9.57
2022-10-18T21:46:20.643Z,10.50
2022-10-18T21:50:22.077Z,10.15
2022-10-18T21:54:23.478Z,9.63
2022-10-18T21:58:24.840Z,8.77
2022-10-18T22:02:26.346Z,9.25
2022-10-18T22:06:30.249Z,8.98
2022-10-18T22:10:32.994Z,8.93
2022-10-18T22:14:35.143Z,8.82
2022-10-18T22:18:36.599Z,9.00
2022-10-18T22:22:38.169Z,8.25
2022-10-18T22:26:41.380Z,7.60
2022-10-18T22:30:42.765Z,8.30
2022-10-18T22:34:44.135Z,7.25
2022-10-18T22:38:45.519Z,7.95
2022-10-18T22:42:46.938Z,7.53
2022-10-18T22:46:48.447Z,7.95
2022-10-18T22:50:49.852Z,8.57
2022-10-18T22:54:51.250Z,8.20
2022-10-18T22:58:52.899Z,7.93
2022-10-18T23:02:54.294Z,7.45
2022-10-18T23:06:55.653Z,7.45
2022-10-18T23:10:59.341Z,6.90
2022-10-18T23:15:00.704Z,6.82
2022-10-18T23:19:02.464Z,6.22
2022-10-18T23:23:04.083Z,7.00
2022-10-18T23:27:05.449Z,5.93
2022-10-18T23:31:08.135Z,6.18
2022-10-18T23:35:09.520Z,5.78
2022-10-18T23:39:10.922Z,5.55
2022-10-18T23:43:12.325Z,5.18
2022-10-18T23:47:14.809Z,5.68
2022-10-18T23:51:17.500Z,5.55
2022-10-18T23:55:18.874Z,4.80
2022-10-18T23:59:20.658Z,5.30
